sensor_id;sensor_type;location;lat;lon;timestamp;pressure;altitude;pressure_sealevel;temperature;humidity
10460;BME280;54412;51.206;6.888;2023-06-22T00:00:58;101059.16;;;25.04;47.14
10460;BME280;54412;51.206;6.888;2023-06-22T00:03:25;101064.72;;;25.03;47.21
10460;BME280;54412;51.206;6.888;2023-06-22T00:05:52;101054.78;;;25.03;47.38
10460;BME280;54412;51.206;6.888;2023-06-22T00:08:19;101060.78;;;24.89;47.30
10460;BME280;54412;51.206;6.888;2023-06-22T00:10:46;101057.56;;;24.94;47.10
10460;BME280;54412;51.206;6.888;2023-06-22T00:13:15;101055.81;;;24.84;47.08
10460;BME280;54412;51.206;6.888;2023-06-22T00:15:41;101063.94;;;24.84;47.25
10460;BME280;54412;51.206;6.888;2023-06-22T00:18:09;101061.31;;;24.93;46.97
10460;BME280;54412;51.206;6.888;2023-06-22T00:20:36;101064.88;;;25.01;46.58
10460;BME280;54412;51.206;6.888;2023-06-22T00:23:04;101065.38;;;24.97;46.73
10460;BME280;54412;51.206;6.888;2023-06-22T00:25:38;101051.13;;;24.87;46.72
10460;BME280;54412;51.206;6.888;2023-06-22T00:28:06;101049.22;;;24.79;46.94
10460;BME280;54412;51.206;6.888;2023-06-22T00:30:33;101054.69;;;24.87;47.08
10460;BME280;54412;51.206;6.888;2023-06-22T00:33:00;101065.94;;;24.82;47.23
10460;BME280;54412;51.206;6.888;2023-06-22T00:35:26;101065.34;;;24.71;46.95
10460;BME280;54412;51.206;6.888;2023-06-22T00:37:55;101059.34;;;24.77;47.10
10460;BME280;54412;51.206;6.888;2023-06-22T00:40:28;101062.16;;;24.75;46.91
10460;BME280;54412;51.206;6.888;2023-06-22T00:42:54;101070.50;;;24.82;46.80
10460;BME280;54412;51.206;6.888;2023-06-22T00:45:22;101074.19;;;24.81;46.94
10460;BME280;54412;51.206;6.888;2023-06-22T00:47:51;101069.56;;;24.91;46.87
10460;BME280;54412;51.206;6.888;2023-06-22T00:50:21;101061.56;;;24.64;47.16
10460;BME280;54412;51.206;6.888;2023-06-22T00:53:08;101067.19;;;24.70;46.86
10460;BME280;54412;51.206;6.888;2023-06-22T00:55:46;101061.50;;;24.73;46.98
10460;BME280;54412;51.206;6.888;2023-06-22T00:58:13;101064.22;;;24.73;47.08
10460;BME280;54412;51.206;6.888;2023-06-22T01:00:40;101062.16;;;24.58;47.55
10460;BME280;54412;51.206;6.888;2023-06-22T01:03:07;101047.16;;;24.55;47.80
10460;BME280;54412;51.206;6.888;2023-06-22T01:05:35;101060.00;;;24.61;47.96
10460;BME280;54412;51.206;6.888;2023-06-22T01:10:51;101051.34;;;24.50;48.33
10460;BME280;54412;51.206;6.888;2023-06-22T01:13:50;101043.69;;;24.45;48.58
10460;BME280;54412;51.206;6.888;2023-06-22T01:16:35;101047.16;;;24.55;48.50
10460;BME280;54412;51.206;6.888;2023-06-22T01:19:39;101042.91;;;24.53;48.82
10460;BME280;54412;51.206;6.888;2023-06-22T01:22:10;101030.88;;;24.65;48.62
10460;BME280;54412;51.206;6.888;2023-06-22T01:25:12;101031.34;;;24.60;48.88
10460;BME280;54412;51.206;6.888;2023-06-22T01:28:00;101037.03;;;24.57;49.10
10460;BME280;54412;51.206;6.888;2023-06-22T01:30:30;101030.28;;;24.53;49.66
10460;BME280;54412;51.206;6.888;2023-06-22T01:33:03;101035.16;;;24.50;49.74
10460;BME280;54412;51.206;6.888;2023-06-22T01:35:31;101032.28;;;24.51;49.96
10460;BME280;54412;51.206;6.888;2023-06-22T01:37:57;101031.28;;;24.52;49.94
10460;BME280;54412;51.206;6.888;2023-06-22T01:40:24;101022.34;;;24.52;49.88
10460;BME280;54412;51.206;6.888;2023-06-22T01:42:50;101018.13;;;24.49;50.19
10460;BME280;54412;51.206;6.888;2023-06-22T01:45:17;101016.56;;;24.47;50.19
10460;BME280;54412;51.206;6.888;2023-06-22T01:47:44;101014.72;;;24.47;50.22
10460;BME280;54412;51.206;6.888;2023-06-22T01:50:11;101012.56;;;24.51;50.33
10460;BME280;54412;51.206;6.888;2023-06-22T01:52:37;101018.28;;;24.48;50.19
10460;BME280;54412;51.206;6.888;2023-06-22T01:55:03;101018.81;;;24.51;50.33
10460;BME280;54412;51.206;6.888;2023-06-22T01:57:30;101019.34;;;24.55;50.13
10460;BME280;54412;51.206;6.888;2023-06-22T02:00:12;101024.53;;;24.31;51.04
10460;BME280;54412;51.206;6.888;2023-06-22T02:03:03;101018.69;;;24.35;51.11
10460;BME280;54412;51.206;6.888;2023-06-22T02:05:37;101018.69;;;24.35;51.12
10460;BME280;54412;51.206;6.888;2023-06-22T02:08:10;101022.88;;;24.38;50.80
10460;BME280;54412;51.206;6.888;2023-06-22T02:10:40;101016.13;;;24.34;51.10
10460;BME280;54412;51.206;6.888;2023-06-22T02:13:08;101014.97;;;24.36;51.16
10460;BME280;54412;51.206;6.888;2023-06-22T02:15:36;101019.59;;;24.26;51.47
10460;BME280;54412;51.206;6.888;2023-06-22T02:18:02;101017.28;;;24.31;51.75
10460;BME280;54412;51.206;6.888;2023-06-22T02:20:28;101012.75;;;24.32;51.62
10460;BME280;54412;51.206;6.888;2023-06-22T02:22:54;101013.31;;;24.18;52.17
10460;BME280;54412;51.206;6.888;2023-06-22T02:25:19;101008.13;;;24.24;52.28
10460;BME280;54412;51.206;6.888;2023-06-22T02:27:46;101003.88;;;24.22;52.44
10460;BME280;54412;51.206;6.888;2023-06-22T02:30:13;101000.03;;;24.24;52.40
10460;BME280;54412;51.206;6.888;2023-06-22T02:32:40;101002.44;;;24.10;52.84
10460;BME280;54412;51.206;6.888;2023-06-22T02:35:09;101001.81;;;24.16;52.64
10460;BME280;54412;51.206;6.888;2023-06-22T02:37:38;101003.66;;;24.15;52.49
10460;BME280;54412;51.206;6.888;2023-06-22T02:40:08;100996.88;;;24.29;52.21
10460;BME280;54412;51.206;6.888;2023-06-22T02:42:39;100990.19;;;24.15;52.57
10460;BME280;54412;51.206;6.888;2023-06-22T02:45:05;100998.50;;;24.04;52.97
10460;BME280;54412;51.206;6.888;2023-06-22T02:47:31;100992.88;;;24.15;52.62
10460;BME280;54412;51.206;6.888;2023-06-22T02:49:57;100990.25;;;24.23;52.28
10460;BME280;54412;51.206;6.888;2023-06-22T02:52:23;100981.53;;;24.29;52.04
10460;BME280;54412;51.206;6.888;2023-06-22T02:54:48;100985.09;;;24.30;52.21
10460;BME280;54412;51.206;6.888;2023-06-22T02:57:14;100977.16;;;24.28;52.06
10460;BME280;54412;51.206;6.888;2023-06-22T02:59:40;100977.84;;;24.13;52.26
10460;BME280;54412;51.206;6.888;2023-06-22T03:02:08;100970.31;;;24.16;52.38
10460;BME280;54412;51.206;6.888;2023-06-22T03:04:35;100968.25;;;24.10;52.48
10460;BME280;54412;51.206;6.888;2023-06-22T03:07:01;100967.16;;;24.21;52.13
10460;BME280;54412;51.206;6.888;2023-06-22T03:09:28;100960.31;;;24.26;51.97
10460;BME280;54412;51.206;6.888;2023-06-22T03:11:54;100962.13;;;24.26;51.91
10460;BME280;54412;51.206;6.888;2023-06-22T03:14:21;100953.31;;;24.16;52.05
10460;BME280;54412;51.206;6.888;2023-06-22T03:16:46;100957.00;;;24.15;52.47
10460;BME280;54412;51.206;6.888;2023-06-22T03:19:12;100957.63;;;24.09;52.31
10460;BME280;54412;51.206;6.888;2023-06-22T03:21:39;100949.16;;;24.21;52.07
10460;BME280;54412;51.206;6.888;2023-06-22T03:24:06;100950.16;;;24.03;52.35
10460;BME280;54412;51.206;6.888;2023-06-22T03:26:33;100949.75;;;24.15;52.04
10460;BME280;54412;51.206;6.888;2023-06-22T03:29:00;100948.75;;;24.16;51.91
10460;BME280;54412;51.206;6.888;2023-06-22T03:31:25;100951.75;;;24.13;52.03
10460;BME280;54412;51.206;6.888;2023-06-22T03:33:51;100948.22;;;24.13;52.05
10460;BME280;54412;51.206;6.888;2023-06-22T03:36:18;100957.06;;;24.23;51.55
10460;BME280;54412;51.206;6.888;2023-06-22T03:38:46;100957.53;;;24.01;52.04
10460;BME280;54412;51.206;6.888;2023-06-22T03:41:11;100942.44;;;24.08;51.91
10460;BME280;54412;51.206;6.888;2023-06-22T03:43:37;100947.84;;;24.08;51.92
10460;BME280;54412;51.206;6.888;2023-06-22T03:46:03;100935.03;;;23.92;52.42
10460;BME280;54412;51.206;6.888;2023-06-22T03:48:28;100931.81;;;24.06;51.84
10460;BME280;54412;51.206;6.888;2023-06-22T03:50:54;100933.81;;;24.04;51.90
10460;BME280;54412;51.206;6.888;2023-06-22T03:53:20;100938.91;;;24.07;51.89
10460;BME280;54412;51.206;6.888;2023-06-22T03:55:52;100942.13;;;24.11;51.65
10460;BME280;54412;51.206;6.888;2023-06-22T03:58:20;100933.50;;;24.07;51.82
10460;BME280;54412;51.206;6.888;2023-06-22T04:00:50;100930.69;;;24.09;51.88
10460;BME280;54412;51.206;6.888;2023-06-22T04:03:17;100934.13;;;24.19;51.62
10460;BME280;54412;51.206;6.888;2023-06-22T04:05:46;100936.97;;;24.00;51.77
10460;BME280;54412;51.206;6.888;2023-06-22T04:08:13;100935.56;;;23.96;51.80
10460;BME280;54412;51.206;6.888;2023-06-22T04:10:39;100933.41;;;23.99;51.66
10460;BME280;54412;51.206;6.888;2023-06-22T04:13:05;100933.66;;;23.88;52.15
10460;BME280;54412;51.206;6.888;2023-06-22T04:15:30;100934.13;;;23.83;52.21
10460;BME280;54412;51.206;6.888;2023-06-22T04:17:56;100933.50;;;23.90;51.90
10460;BME280;54412;51.206;6.888;2023-06-22T04:20:23;100935.03;;;23.92;51.42
10460;BME280;54412;51.206;6.888;2023-06-22T04:22:54;100934.13;;;23.83;52.05
10460;BME280;54412;51.206;6.888;2023-06-22T04:25:21;100943.13;;;23.92;52.40
10460;BME280;54412;51.206;6.888;2023-06-22T04:27:48;100935.81;;;24.02;52.59
10460;BME280;54412;51.206;6.888;2023-06-22T04:30:14;100936.19;;;24.25;51.38
10460;BME280;54412;51.206;6.888;2023-06-22T04:32:44;100923.94;;;24.13;51.26
10460;BME280;54412;51.206;6.888;2023-06-22T04:35:10;100933.78;;;24.22;51.18
10460;BME280;54412;51.206;6.888;2023-06-22T04:37:36;100934.34;;;24.08;51.28
10460;BME280;54412;51.206;6.888;2023-06-22T04:40:02;100936.34;;;24.06;51.17
10460;BME280;54412;51.206;6.888;2023-06-22T04:42:30;100935.88;;;24.28;50.93
10460;BME280;54412;51.206;6.888;2023-06-22T04:44:57;100939.09;;;24.31;50.18
10460;BME280;54412;51.206;6.888;2023-06-22T04:47:23;100939.34;;;24.20;50.73
10460;BME280;54412;51.206;6.888;2023-06-22T04:49:48;100949.91;;;23.96;51.13
10460;BME280;54412;51.206;6.888;2023-06-22T04:52:14;100933.88;;;23.95;51.29
10460;BME280;54412;51.206;6.888;2023-06-22T04:54:43;100952.13;;;24.18;50.54
10460;BME280;54412;51.206;6.888;2023-06-22T04:57:16;100951.38;;;24.08;50.72
10460;BME280;54412;51.206;6.888;2023-06-22T04:59:43;100948.22;;;24.13;50.61
10460;BME280;54412;51.206;6.888;2023-06-22T05:02:10;100946.69;;;24.10;50.71
10460;BME280;54412;51.206;6.888;2023-06-22T05:04:35;100947.75;;;24.00;51.07
10460;BME280;54412;51.206;6.888;2023-06-22T05:07:04;100946.66;;;24.28;50.42
10460;BME280;54412;51.206;6.888;2023-06-22T05:09:30;100940.78;;;24.32;50.48
10460;BME280;54412;51.206;6.888;2023-06-22T05:11:56;100933.56;;;24.33;50.76
10460;BME280;54412;51.206;6.888;2023-06-22T05:14:25;100939.44;;;24.28;50.76
10460;BME280;54412;51.206;6.888;2023-06-22T05:16:50;100943.88;;;24.20;51.37
10460;BME280;54412;51.206;6.888;2023-06-22T05:19:17;100935.13;;;24.18;52.31
10460;BME280;54412;51.206;6.888;2023-06-22T05:21:43;100936.03;;;24.26;51.52
10460;BME280;54412;51.206;6.888;2023-06-22T05:24:09;100933.56;;;24.33;51.98
10460;BME280;54412;51.206;6.888;2023-06-22T05:26:35;100940.25;;;24.46;51.91
10460;BME280;54412;51.206;6.888;2023-06-22T05:29:03;100934.44;;;24.67;51.31
10460;BME280;54412;51.206;6.888;2023-06-22T05:31:29;100933.25;;;24.61;51.94
10460;BME280;54412;51.206;6.888;2023-06-22T05:33:55;100935.56;;;24.56;52.08
10460;BME280;54412;51.206;6.888;2023-06-22T05:36:22;100940.59;;;24.51;52.00
10460;BME280;54412;51.206;6.888;2023-06-22T05:38:52;100935.22;;;24.51;52.77
10460;BME280;54412;51.206;6.888;2023-06-22T05:41:18;100927.31;;;24.58;52.24
10460;BME280;54412;51.206;6.888;2023-06-22T05:43:43;100934.69;;;24.48;52.32
10460;BME280;54412;51.206;6.888;2023-06-22T05:46:09;100938.88;;;24.50;52.41
10460;BME280;54412;51.206;6.888;2023-06-22T05:48:35;100940.38;;;24.45;53.04
10460;BME280;54412;51.206;6.888;2023-06-22T05:51:01;100944.16;;;24.34;53.28
10460;BME280;54412;51.206;6.888;2023-06-22T05:53:26;100945.56;;;24.38;53.54
10460;BME280;54412;51.206;6.888;2023-06-22T05:55:52;100938.00;;;24.42;53.49
10460;BME280;54412;51.206;6.888;2023-06-22T05:58:18;100941.72;;;24.41;53.26
10460;BME280;54412;51.206;6.888;2023-06-22T06:00:44;100939.56;;;24.27;53.70
10460;BME280;54412;51.206;6.888;2023-06-22T06:03:10;100936.25;;;24.33;53.68
10460;BME280;54412;51.206;6.888;2023-06-22T06:05:36;100930.28;;;24.47;53.46
10460;BME280;54412;51.206;6.888;2023-06-22T06:08:05;100941.78;;;24.31;54.01
10460;BME280;54412;51.206;6.888;2023-06-22T06:10:32;100947.03;;;24.33;53.69
10460;BME280;54412;51.206;6.888;2023-06-22T06:12:59;100958.19;;;24.38;53.71
10460;BME280;54412;51.206;6.888;2023-06-22T06:15:28;100961.56;;;24.40;53.51
10460;BME280;54412;51.206;6.888;2023-06-22T06:17:54;100961.56;;;24.40;53.56
10460;BME280;54412;51.206;6.888;2023-06-22T06:20:22;100954.66;;;24.37;54.07
10460;BME280;54412;51.206;6.888;2023-06-22T06:22:49;100949.28;;;24.37;54.09
10460;BME280;54412;51.206;6.888;2023-06-22T06:25:16;100951.69;;;24.48;53.96
10460;BME280;54412;51.206;6.888;2023-06-22T06:27:43;100955.13;;;24.33;54.58
10460;BME280;54412;51.206;6.888;2023-06-22T06:30:11;100965.28;;;24.39;54.77
10460;BME280;54412;51.206;6.888;2023-06-22T06:32:36;100952.78;;;24.55;54.44
10460;BME280;54412;51.206;6.888;2023-06-22T06:35:07;100964.44;;;24.38;55.07
10460;BME280;54412;51.206;6.888;2023-06-22T06:37:37;100961.28;;;24.43;55.90
10460;BME280;54412;51.206;6.888;2023-06-22T06:40:05;100964.06;;;24.33;56.74
10460;BME280;54412;51.206;6.888;2023-06-22T06:42:34;100966.44;;;24.36;56.60
10460;BME280;54412;51.206;6.888;2023-06-22T06:44:59;100963.72;;;24.36;57.32
10460;BME280;54412;51.206;6.888;2023-06-22T06:47:25;100967.91;;;24.31;58.94
10460;BME280;54412;51.206;6.888;2023-06-22T06:49:51;100960.09;;;24.45;58.60
10460;BME280;54412;51.206;6.888;2023-06-22T06:52:16;100959.97;;;24.29;59.66
10460;BME280;54412;51.206;6.888;2023-06-22T06:54:42;100958.00;;;24.14;61.00
10460;BME280;54412;51.206;6.888;2023-06-22T06:57:08;100966.78;;;24.16;62.64
10460;BME280;54412;51.206;6.888;2023-06-22T06:59:36;100963.81;;;23.74;63.79
10460;BME280;54412;51.206;6.888;2023-06-22T07:02:01;100975.66;;;23.63;64.21
10460;BME280;54412;51.206;6.888;2023-06-22T07:04:27;100978.09;;;23.57;64.45
10460;BME280;54412;51.206;6.888;2023-06-22T07:06:53;100956.09;;;23.44;65.82
10460;BME280;54412;51.206;6.888;2023-06-22T07:09:18;100951.44;;;23.63;67.44
10460;BME280;54412;51.206;6.888;2023-06-22T07:11:44;100936.41;;;23.78;68.31
10460;BME280;54412;51.206;6.888;2023-06-22T07:14:10;100932.91;;;23.33;69.83
10460;BME280;54412;51.206;6.888;2023-06-22T07:16:35;100942.22;;;23.39;68.99
10460;BME280;54412;51.206;6.888;2023-06-22T07:19:01;100938.38;;;23.41;70.15
10460;BME280;54412;51.206;6.888;2023-06-22T07:21:27;100943.19;;;23.65;69.93
10460;BME280;54412;51.206;6.888;2023-06-22T07:23:52;100929.47;;;23.58;69.98
10460;BME280;54412;51.206;6.888;2023-06-22T07:26:19;100935.53;;;23.43;71.22
10460;BME280;54412;51.206;6.888;2023-06-22T07:28:45;100921.59;;;23.74;69.67
10460;BME280;54412;51.206;6.888;2023-06-22T07:31:10;100921.81;;;23.81;69.54
10460;BME280;54412;51.206;6.888;2023-06-22T07:33:36;100917.56;;;23.78;70.20
10460;BME280;54412;51.206;6.888;2023-06-22T07:36:02;100915.72;;;23.79;70.45
10460;BME280;54412;51.206;6.888;2023-06-22T07:38:33;100911.94;;;23.72;71.57
10460;BME280;54412;51.206;6.888;2023-06-22T07:40:59;100917.81;;;23.85;70.05
10460;BME280;54412;51.206;6.888;2023-06-22T07:43:25;100920.94;;;23.98;71.17
10460;BME280;54412;51.206;6.888;2023-06-22T07:45:51;100904.88;;;24.57;69.72
10460;BME280;54412;51.206;6.888;2023-06-22T07:48:21;100897.97;;;24.55;72.48
10460;BME280;54412;51.206;6.888;2023-06-22T07:50:48;100891.41;;;24.57;70.51
10460;BME280;54412;51.206;6.888;2023-06-22T07:53:13;100889.66;;;24.48;72.18
10460;BME280;54412;51.206;6.888;2023-06-22T07:55:39;100887.84;;;24.74;71.07
10460;BME280;54412;51.206;6.888;2023-06-22T07:58:05;100882.69;;;24.89;71.02
10460;BME280;54412;51.206;6.888;2023-06-22T08:00:30;100872.06;;;24.88;71.03
10460;BME280;54412;51.206;6.888;2023-06-22T08:02:56;100869.94;;;25.15;70.81
10460;BME280;54412;51.206;6.888;2023-06-22T08:05:22;100848.88;;;25.27;70.78
10460;BME280;54412;51.206;6.888;2023-06-22T08:07:48;100849.97;;;25.50;71.11
10460;BME280;54412;51.206;6.888;2023-06-22T08:10:14;100846.91;;;25.53;70.08
10460;BME280;54412;51.206;6.888;2023-06-22T08:12:40;100847.78;;;25.53;70.63
10460;BME280;54412;51.206;6.888;2023-06-22T08:15:07;100846.41;;;25.49;70.36
10460;BME280;54412;51.206;6.888;2023-06-22T08:17:33;100844.06;;;25.62;69.65
10460;BME280;54412;51.206;6.888;2023-06-22T08:19:59;100837.97;;;25.44;70.40
10460;BME280;54412;51.206;6.888;2023-06-22T08:22:25;100840.88;;;25.51;69.47
10460;BME280;54412;51.206;6.888;2023-06-22T08:24:50;100844.59;;;25.90;68.52
10460;BME280;54412;51.206;6.888;2023-06-22T08:27:16;100845.78;;;26.04;68.61
10460;BME280;54412;51.206;6.888;2023-06-22T08:29:44;100853.53;;;26.23;67.44
10460;BME280;54412;51.206;6.888;2023-06-22T08:32:12;100843.41;;;26.09;68.61
10460;BME280;54412;51.206;6.888;2023-06-22T08:34:37;100844.91;;;26.35;68.45
10460;BME280;54412;51.206;6.888;2023-06-22T08:37:08;100840.31;;;26.36;66.47
10460;BME280;54412;51.206;6.888;2023-06-22T08:39:34;100834.91;;;26.36;65.82
10460;BME280;54412;51.206;6.888;2023-06-22T08:42:00;100834.22;;;26.34;65.69
10460;BME280;54412;51.206;6.888;2023-06-22T08:44:26;100836.44;;;26.30;66.48
10460;BME280;54412;51.206;6.888;2023-06-22T08:46:52;100823.22;;;26.51;66.34
10460;BME280;54412;51.206;6.888;2023-06-22T08:49:17;100820.44;;;26.67;65.58
10460;BME280;54412;51.206;6.888;2023-06-22T08:51:43;100822.56;;;26.88;65.76
10460;BME280;54412;51.206;6.888;2023-06-22T08:54:11;100811.53;;;26.98;64.55
10460;BME280;54412;51.206;6.888;2023-06-22T08:56:37;100817.69;;;27.14;65.35
10460;BME280;54412;51.206;6.888;2023-06-22T08:59:02;100810.84;;;27.26;63.91
10460;BME280;54412;51.206;6.888;2023-06-22T09:01:28;100807.84;;;27.21;63.32
10460;BME280;54412;51.206;6.888;2023-06-22T09:03:54;100801.47;;;27.37;63.19
10460;BME280;54412;51.206;6.888;2023-06-22T09:06:23;100791.25;;;27.47;63.06
10460;BME280;54412;51.206;6.888;2023-06-22T09:08:50;100787.47;;;27.56;62.79
10460;BME280;54412;51.206;6.888;2023-06-22T09:11:16;100788.00;;;27.74;60.08
10460;BME280;54412;51.206;6.888;2023-06-22T09:13:42;100779.16;;;27.95;60.52
10460;BME280;54412;51.206;6.888;2023-06-22T09:16:08;100777.31;;;28.10;59.73
10460;BME280;54412;51.206;6.888;2023-06-22T09:18:36;100779.84;;;27.74;59.09
10460;BME280;54412;51.206;6.888;2023-06-22T09:21:02;100792.28;;;27.46;58.82
10460;BME280;54412;51.206;6.888;2023-06-22T09:23:28;100801.31;;;27.61;57.87
10460;BME280;54412;51.206;6.888;2023-06-22T09:25:54;100795.13;;;27.67;57.45
10460;BME280;54412;51.206;6.888;2023-06-22T09:28:19;100802.59;;;27.50;57.75
10460;BME280;54412;51.206;6.888;2023-06-22T09:30:45;100781.38;;;27.31;58.96
10460;BME280;54412;51.206;6.888;2023-06-22T09:33:11;100771.97;;;27.64;57.38
10460;BME280;54412;51.206;6.888;2023-06-22T09:35:37;100760.50;;;27.77;58.19
10460;BME280;54412;51.206;6.888;2023-06-22T09:38:02;100758.13;;;27.97;57.57
10460;BME280;54412;51.206;6.888;2023-06-22T09:40:28;100750.84;;;27.97;57.66
10460;BME280;54412;51.206;6.888;2023-06-22T09:42:54;100747.19;;;28.19;55.79
10460;BME280;54412;51.206;6.888;2023-06-22T09:45:19;100749.75;;;28.21;57.12
10460;BME280;54412;51.206;6.888;2023-06-22T09:47:45;100743.53;;;28.12;56.48
10460;BME280;54412;51.206;6.888;2023-06-22T09:50:11;100745.03;;;28.00;56.47
10460;BME280;54412;51.206;6.888;2023-06-22T09:52:36;100748.28;;;27.96;56.65
10460;BME280;54412;51.206;6.888;2023-06-22T09:55:02;100743.78;;;27.88;57.27
10460;BME280;54412;51.206;6.888;2023-06-22T09:57:29;100736.19;;;28.06;57.50
10460;BME280;54412;51.206;6.888;2023-06-22T09:59:55;100729.25;;;28.18;56.14
10460;BME280;54412;51.206;6.888;2023-06-22T10:02:21;100737.84;;;28.22;57.13
10460;BME280;54412;51.206;6.888;2023-06-22T10:04:48;100738.97;;;28.42;57.27
10460;BME280;54412;51.206;6.888;2023-06-22T10:07:13;100743.53;;;28.41;55.68
10460;BME280;54412;51.206;6.888;2023-06-22T10:09:39;100737.19;;;28.34;56.32
10460;BME280;54412;51.206;6.888;2023-06-22T10:12:05;100737.47;;;28.39;56.13
10460;BME280;54412;51.206;6.888;2023-06-22T10:14:31;100739.97;;;28.41;55.91
10460;BME280;54412;51.206;6.888;2023-06-22T10:16:57;100741.56;;;28.35;56.46
10460;BME280;54412;51.206;6.888;2023-06-22T10:19:22;100741.88;;;28.11;56.52
10460;BME280;54412;51.206;6.888;2023-06-22T10:21:48;100739.34;;;27.95;56.49
10460;BME280;54412;51.206;6.888;2023-06-22T10:24:14;100743.41;;;27.91;56.80
10460;BME280;54412;51.206;6.888;2023-06-22T10:26:40;100744.13;;;27.70;57.68
10460;BME280;54412;51.206;6.888;2023-06-22T10:29:05;100738.56;;;27.49;58.42
10460;BME280;54412;51.206;6.888;2023-06-22T10:31:31;100753.09;;;27.34;58.93
10460;BME280;54412;51.206;6.888;2023-06-22T10:33:57;100756.31;;;27.29;58.97
10460;BME280;54412;51.206;6.888;2023-06-22T10:36:23;100775.19;;;27.15;58.87
10460;BME280;54412;51.206;6.888;2023-06-22T10:38:49;100782.34;;;27.08;60.01
10460;BME280;54412;51.206;6.888;2023-06-22T10:41:15;100781.53;;;27.07;60.13
10460;BME280;54412;51.206;6.888;2023-06-22T10:43:42;100792.00;;;27.10;60.01
10460;BME280;54412;51.206;6.888;2023-06-22T10:46:08;100792.00;;;27.10;60.27
10460;BME280;54412;51.206;6.888;2023-06-22T10:48:33;100806.19;;;26.81;62.86
10460;BME280;54412;51.206;6.888;2023-06-22T10:50:59;100808.44;;;26.70;66.28
10460;BME280;54412;51.206;6.888;2023-06-22T10:53:25;100817.06;;;26.65;67.02
10460;BME280;54412;51.206;6.888;2023-06-22T10:55:50;100815.47;;;26.40;70.32
10460;BME280;54412;51.206;6.888;2023-06-22T10:58:20;100825.06;;;26.43;71.58
10460;BME280;54412;51.206;6.888;2023-06-22T11:00:46;100839.88;;;25.92;75.42
10460;BME280;54412;51.206;6.888;2023-06-22T11:03:12;100835.63;;;25.98;75.10
10460;BME280;54412;51.206;6.888;2023-06-22T11:05:39;100841.06;;;26.06;77.55
10460;BME280;54412;51.206;6.888;2023-06-22T11:08:05;100839.53;;;25.79;77.63
10460;BME280;54412;51.206;6.888;2023-06-22T11:10:31;100833.78;;;25.82;79.98
10460;BME280;54412;51.206;6.888;2023-06-22T11:12:56;100842.22;;;25.79;81.33
10460;BME280;54412;51.206;6.888;2023-06-22T11:15:24;100848.31;;;25.81;82.07
10460;BME280;54412;51.206;6.888;2023-06-22T11:17:50;100841.19;;;25.80;82.62
10460;BME280;54412;51.206;6.888;2023-06-22T11:20:15;100837.69;;;25.79;83.03
10460;BME280;54412;51.206;6.888;2023-06-22T11:22:42;100839.38;;;25.89;81.98
10460;BME280;54412;51.206;6.888;2023-06-22T11:25:08;100840.38;;;25.63;82.68
10460;BME280;54412;51.206;6.888;2023-06-22T11:27:34;100833.44;;;25.69;82.45
10460;BME280;54412;51.206;6.888;2023-06-22T11:30:00;100823.50;;;25.77;81.27
10460;BME280;54412;51.206;6.888;2023-06-22T11:32:26;100815.88;;;25.65;80.96
10460;BME280;54412;51.206;6.888;2023-06-22T11:34:52;100798.66;;;25.66;79.56
10460;BME280;54412;51.206;6.888;2023-06-22T11:37:17;100790.91;;;25.47;80.27
10460;BME280;54412;51.206;6.888;2023-06-22T11:39:43;100780.41;;;25.44;79.93
10460;BME280;54412;51.206;6.888;2023-06-22T11:42:10;100773.34;;;25.43;79.46
10460;BME280;54412;51.206;6.888;2023-06-22T11:44:35;100757.97;;;25.51;78.43
10460;BME280;54412;51.206;6.888;2023-06-22T11:47:01;100748.34;;;25.41;79.14
10460;BME280;54412;51.206;6.888;2023-06-22T11:49:31;100738.06;;;25.44;78.56
10460;BME280;54412;51.206;6.888;2023-06-22T11:51:56;100734.66;;;25.66;76.53
10460;BME280;54412;51.206;6.888;2023-06-22T11:54:22;100728.94;;;25.61;77.59
10460;BME280;54412;51.206;6.888;2023-06-22T11:56:48;100717.28;;;25.53;77.29
10460;BME280;54412;51.206;6.888;2023-06-22T11:59:13;100695.31;;;25.64;77.20
10460;BME280;54412;51.206;6.888;2023-06-22T12:01:39;100681.13;;;25.62;78.03
10460;BME280;54412;51.206;6.888;2023-06-22T12:04:05;100653.31;;;25.61;77.86
10460;BME280;54412;51.206;6.888;2023-06-22T12:06:32;100646.31;;;25.83;76.60
10460;BME280;54412;51.206;6.888;2023-06-22T12:08:58;100641.13;;;25.65;77.43
10460;BME280;54412;51.206;6.888;2023-06-22T12:11:24;100632.50;;;25.62;77.95
10460;BME280;54412;51.206;6.888;2023-06-22T12:13:50;100623.47;;;25.31;79.16
10460;BME280;54412;51.206;6.888;2023-06-22T12:16:15;100621.56;;;25.31;80.25
10460;BME280;54412;51.206;6.888;2023-06-22T12:18:41;100643.69;;;25.27;81.49
10460;BME280;54412;51.206;6.888;2023-06-22T12:21:07;100644.06;;;25.40;79.43
10460;BME280;54412;51.206;6.888;2023-06-22T12:23:33;100635.25;;;25.30;79.77
10460;BME280;54412;51.206;6.888;2023-06-22T12:25:58;100637.97;;;25.14;81.19
10460;BME280;54412;51.206;6.888;2023-06-22T12:28:25;100630.56;;;25.08;82.09
10460;BME280;54412;51.206;6.888;2023-06-22T12:30:51;100619.56;;;25.17;81.09
10460;BME280;54412;51.206;6.888;2023-06-22T12:33:17;100629.88;;;25.14;82.07
10460;BME280;54412;51.206;6.888;2023-06-22T12:35:43;100631.06;;;25.43;81.18
10460;BME280;54412;51.206;6.888;2023-06-22T12:38:10;100632.88;;;25.59;79.45
10460;BME280;54412;51.206;6.888;2023-06-22T12:40:36;100631.47;;;25.71;79.18
10460;BME280;54412;51.206;6.888;2023-06-22T12:43:02;100624.72;;;25.75;79.32
10460;BME280;54412;51.206;6.888;2023-06-22T12:45:28;100615.63;;;25.76;79.84
10460;BME280;54412;51.206;6.888;2023-06-22T12:47:57;100620.72;;;25.55;81.37
10460;BME280;54412;51.206;6.888;2023-06-22T12:50:23;100612.41;;;25.72;80.78
10460;BME280;54412;51.206;6.888;2023-06-22T12:52:48;100619.50;;;25.73;80.45